Time;durP1;ratioP1;P1;durP2;ratioP2;P2;SDS_P1;SDS_P2;PMS_P1;PMS_P2;Temp;Humidity;BMP_temperature;BMP_pressure;BME280_temperature;BME280_humidity;BME280_pressure;Samples;Min_cycle;Max_cycle;Signal;HPM_P1;HPM_P2
2024/01/28 00:00:49;;;;;;;6.35;4.68;;;-0.30;99.90;;;;;;503031;236;27500;-66
2024/01/28 00:02:51;;;;;;;9.90;4.90;;;-0.30;99.90;;;;;;502996;236;27910;-65
2024/01/28 00:04:52;;;;;;;8.75;4.93;;;-0.40;99.90;;;;;;503036;236;27992;-65
2024/01/28 00:06:53;;;;;;;8.45;4.55;;;-0.30;99.90;;;;;;502921;236;27875;-65
2024/01/28 00:08:54;;;;;;;12.82;4.90;;;-0.40;99.90;;;;;;503025;236;27521;-65
2024/01/28 00:10:56;;;;;;;8.57;4.87;;;-0.50;99.90;;;;;;502941;236;27540;-67
2024/01/28 00:12:57;;;;;;;8.70;5.07;;;-0.50;99.90;;;;;;502994;236;27446;-65
2024/01/28 00:14:58;;;;;;;6.97;4.90;;;-0.50;99.90;;;;;;502935;236;27557;-68
2024/01/28 00:16:59;;;;;;;6.95;5.10;;;-0.60;99.90;;;;;;503018;236;27488;-66
2024/01/28 00:19:01;;;;;;;10.15;4.78;;;-0.60;99.90;;;;;;502981;236;27504;-65
2024/01/28 00:21:04;;;;;;;8.60;4.87;;;-0.50;99.90;;;;;;502986;236;28040;-65
2024/01/28 00:23:03;;;;;;;6.60;4.70;;;-0.60;99.90;;;;;;502731;236;28093;-65
2024/01/28 00:25:04;;;;;;;7.68;4.60;;;-0.60;99.90;;;;;;502929;236;29021;-65
2024/01/28 00:27:06;;;;;;;6.75;4.00;;;-0.50;99.90;;;;;;503021;236;27466;-67
2024/01/28 00:29:07;;;;;;;7.15;4.62;;;-0.50;99.90;;;;;;502942;236;27446;-65
2024/01/28 00:31:09;;;;;;;5.50;4.57;;;-0.50;99.90;;;;;;502971;236;27485;-65
2024/01/28 00:33:10;;;;;;;7.30;4.97;;;-0.50;99.90;;;;;;502915;236;27426;-65
2024/01/28 00:35:11;;;;;;;10.65;4.87;;;-0.60;99.90;;;;;;502916;236;27451;-65
2024/01/28 00:37:12;;;;;;;7.70;5.43;;;-0.60;99.90;;;;;;502908;236;27531;-66
2024/01/28 00:39:13;;;;;;;8.07;5.07;;;-0.70;99.90;;;;;;502973;236;27438;-65
2024/01/28 00:41:14;;;;;;;4.87;3.97;;;-0.70;99.90;;;;;;502995;236;27942;-66
2024/01/28 00:43:16;;;;;;;6.95;4.90;;;-0.70;99.90;;;;;;502825;236;28152;-65
2024/01/28 00:45:17;;;;;;;6.47;4.32;;;-0.70;99.90;;;;;;503019;236;27924;-65
2024/01/28 00:47:18;;;;;;;6.65;4.35;;;-0.60;99.90;;;;;;503056;236;27570;-64
2024/01/28 00:49:23;;;;;;;6.12;4.40;;;-0.70;99.90;;;;;;503046;236;27482;-65
2024/01/28 00:51:21;;;;;;;7.47;5.40;;;-0.70;99.90;;;;;;502745;236;27593;-65
2024/01/28 00:53:23;;;;;;;8.68;5.47;;;-0.80;99.90;;;;;;503082;236;27482;-66
2024/01/28 00:55:24;;;;;;;8.05;5.68;;;-0.80;99.90;;;;;;502959;236;27488;-65
2024/01/28 00:57:26;;;;;;;9.43;5.72;;;-0.90;99.90;;;;;;503043;236;27510;-65
2024/01/28 00:59:28;;;;;;;8.27;5.43;;;-0.90;99.90;;;;;;503019;236;27919;-65
2024/01/28 01:01:29;;;;;;;11.27;6.65;;;-0.80;99.90;;;;;;503003;236;27479;-65
2024/01/28 01:03:30;;;;;;;9.30;4.90;;;-0.80;99.90;;;;;;503043;236;27564;-66
2024/01/28 01:05:32;;;;;;;9.98;5.30;;;-0.80;99.90;;;;;;502933;236;27463;-65
2024/01/28 01:07:33;;;;;;;6.70;4.55;;;-0.80;99.90;;;;;;502991;236;27465;-65
2024/01/28 01:09:35;;;;;;;7.78;4.93;;;-0.80;99.90;;;;;;503024;236;27446;-65
2024/01/28 01:11:35;;;;;;;7.47;5.12;;;-0.80;99.90;;;;;;502990;236;27453;-65
2024/01/28 01:13:36;;;;;;;13.68;6.07;;;-0.80;99.90;;;;;;503021;236;27482;-65
2024/01/28 01:15:38;;;;;;;10.98;5.50;;;-0.80;99.90;;;;;;502971;236;28009;-65
2024/01/28 01:17:41;;;;;;;10.88;6.47;;;-0.90;99.90;;;;;;502896;236;27968;-65
2024/01/28 01:19:40;;;;;;;7.35;5.45;;;-0.80;99.90;;;;;;502822;236;27505;-67
2024/01/28 01:21:41;;;;;;;10.45;5.47;;;-0.80;99.90;;;;;;502862;236;27434;-65
2024/01/28 01:23:43;;;;;;;9.90;6.22;;;-0.80;99.90;;;;;;503020;236;27502;-66
2024/01/28 01:25:45;;;;;;;8.13;5.72;;;-0.80;99.90;;;;;;502980;236;27430;-65
2024/01/28 01:27:52;;;;;;;11.20;6.70;;;-0.80;99.90;;;;;;503011;236;27606;-65
2024/01/28 01:29:49;;;;;;;10.63;6.25;;;-0.70;99.90;;;;;;502641;236;29017;-65
2024/01/28 01:31:51;;;;;;;13.32;5.75;;;-0.70;99.90;;;;;;503011;236;27566;-66
2024/01/28 01:33:52;;;;;;;8.38;5.20;;;-0.70;99.90;;;;;;503013;236;27870;-65
2024/01/28 01:35:53;;;;;;;10.02;5.10;;;-0.70;99.90;;;;;;502885;236;27477;-65
2024/01/28 01:37:54;;;;;;;9.27;5.30;;;-0.70;99.90;;;;;;503042;236;27509;-66
2024/01/28 01:39:56;;;;;;;6.62;4.90;;;-0.70;99.90;;;;;;503008;236;27591;-65
2024/01/28 01:41:57;;;;;;;8.63;5.60;;;-0.80;99.90;;;;;;503021;236;27510;-65
2024/01/28 01:44:00;;;;;;;6.68;5.12;;;-0.80;99.90;;;;;;502996;236;27893;-65
2024/01/28 01:45:59;;;;;;;10.38;5.37;;;-0.80;99.90;;;;;;502815;236;28047;-65
2024/01/28 01:48:01;;;;;;;10.77;6.05;;;-0.90;99.90;;;;;;503062;236;29044;-66
2024/01/28 01:50:02;;;;;;;9.05;5.12;;;-1.00;99.90;;;;;;502927;236;27491;-64
2024/01/28 01:52:03;;;;;;;10.57;5.50;;;-1.00;99.90;;;;;;503039;236;27473;-66
2024/01/28 01:54:04;;;;;;;8.32;5.37;;;-1.00;99.90;;;;;;502994;236;27455;-65
2024/01/28 01:56:06;;;;;;;8.43;5.60;;;-1.00;99.90;;;;;;503002;236;27447;-65
2024/01/28 01:58:07;;;;;;;11.15;5.37;;;-1.00;99.90;;;;;;503025;236;27510;-66
2024/01/28 02:00:08;;;;;;;7.30;5.70;;;-1.00;99.90;;;;;;503049;236;27446;-65
2024/01/28 02:02:10;;;;;;;7.37;5.62;;;-1.10;99.90;;;;;;502958;236;27935;-65
2024/01/28 02:04:11;;;;;;;12.18;5.85;;;-1.20;99.90;;;;;;502937;236;28217;-65
2024/01/28 02:06:12;;;;;;;10.10;5.30;;;-1.20;99.90;;;;;;503017;236;27966;-65
2024/01/28 02:08:13;;;;;;;12.30;5.80;;;-1.20;99.90;;;;;;502983;236;27486;-66
2024/01/28 02:10:15;;;;;;;10.90;5.55;;;-1.20;99.90;;;;;;502885;236;27464;-65
2024/01/28 02:12:16;;;;;;;7.75;5.15;;;-1.10;99.90;;;;;;502853;236;27919;-65
2024/01/28 02:14:17;;;;;;;6.93;5.00;;;-1.10;99.90;;;;;;502832;236;27513;-66
2024/01/28 02:16:18;;;;;;;6.30;5.05;;;-1.20;99.90;;;;;;502650;236;27937;-65
2024/01/28 02:18:20;;;;;;;10.10;5.80;;;-1.10;99.90;;;;;;502618;236;27993;-65
2024/01/28 02:20:21;;;;;;;8.75;5.50;;;-1.20;99.90;;;;;;502728;236;28762;-65
2024/01/28 02:22:22;;;;;;;9.00;5.60;;;-1.20;99.90;;;;;;502889;236;27558;-65
2024/01/28 02:24:23;;;;;;;10.50;4.93;;;-1.20;99.90;;;;;;503023;236;27481;-65
2024/01/28 02:26:25;;;;;;;8.80;5.62;;;-1.20;99.90;;;;;;502903;236;27442;-64
2024/01/28 02:28:26;;;;;;;6.37;5.05;;;-1.20;99.90;;;;;;502980;236;27508;-65
2024/01/28 02:30:27;;;;;;;7.97;5.00;;;-1.10;99.90;;;;;;503052;236;27481;-66
2024/01/28 02:32:28;;;;;;;7.57;5.35;;;-1.20;99.90;;;;;;502972;236;27453;-65
2024/01/28 02:34:30;;;;;;;7.87;4.85;;;-1.20;99.90;;;;;;503003;236;27479;-65
2024/01/28 02:36:31;;;;;;;10.57;5.53;;;-1.20;99.90;;;;;;502757;236;27913;-65
2024/01/28 02:38:32;;;;;;;10.40;6.22;;;-1.20;99.90;;;;;;503036;236;27977;-65
2024/01/28 02:40:34;;;;;;;7.22;5.22;;;-1.20;99.90;;;;;;503054;236;27489;-66
2024/01/28 02:42:35;;;;;;;9.75;5.82;;;-1.30;99.90;;;;;;503007;236;27446;-65
2024/01/28 02:44:36;;;;;;;10.88;5.70;;;-1.40;99.90;;;;;;502988;236;27473;-65
2024/01/28 02:46:37;;;;;;;8.73;5.50;;;-1.40;99.90;;;;;;502957;236;27556;-65
2024/01/28 02:48:38;;;;;;;10.90;6.72;;;-1.50;99.90;;;;;;503010;236;27457;-65
2024/01/28 02:50:40;;;;;;;10.60;5.62;;;-1.50;99.90;;;;;;502974;236;27485;-65
2024/01/28 02:52:41;;;;;;;13.98;5.65;;;-1.40;99.90;;;;;;503012;236;27974;-65
2024/01/28 02:54:42;;;;;;;8.02;5.32;;;-1.40;99.90;;;;;;502982;236;28044;-65
2024/01/28 02:56:43;;;;;;;11.38;6.57;;;-1.40;99.90;;;;;;503015;236;28001;-66
2024/01/28 02:58:45;;;;;;;9.40;5.53;;;-1.40;99.90;;;;;;502995;236;27422;-65
2024/01/28 03:00:46;;;;;;;10.05;5.93;;;-1.40;99.90;;;;;;502995;236;27514;-65
2024/01/28 03:02:48;;;;;;;6.85;5.28;;;-1.30;99.90;;;;;;502978;236;27501;-66
2024/01/28 03:04:48;;;;;;;9.55;5.90;;;-1.30;99.90;;;;;;502975;236;27515;-65
2024/01/28 03:06:50;;;;;;;8.35;5.00;;;-1.40;99.90;;;;;;502985;236;27544;-66
2024/01/28 03:08:51;;;;;;;11.57;6.70;;;-1.40;99.90;;;;;;503027;236;27518;-65
2024/01/28 03:10:52;;;;;;;8.02;5.70;;;-1.40;99.90;;;;;;502994;236;27980;-65
2024/01/28 03:12:54;;;;;;;8.23;6.20;;;-1.50;99.90;;;;;;502981;236;28709;-65
2024/01/28 03:14:55;;;;;;;8.88;5.53;;;-1.50;99.90;;;;;;502907;236;29009;-65
2024/01/28 03:16:56;;;;;;;11.35;6.70;;;-1.50;99.90;;;;;;502945;236;27471;-65
2024/01/28 03:18:57;;;;;;;9.30;5.90;;;-1.40;99.90;;;;;;503016;236;27511;-65
2024/01/28 03:20:59;;;;;;;7.47;5.35;;;-1.40;99.90;;;;;;502968;236;27522;-65
2024/01/28 03:23:00;;;;;;;10.35;6.00;;;-1.40;99.90;;;;;;503037;236;27505;-66
2024/01/28 03:25:01;;;;;;;9.60;5.80;;;-1.40;99.90;;;;;;502951;236;27463;-65
2024/01/28 03:27:02;;;;;;;6.50;4.90;;;-1.40;99.90;;;;;;502965;236;27500;-65
2024/01/28 03:29:07;;;;;;;9.27;5.47;;;-1.40;99.90;;;;;;503006;236;27454;-65
2024/01/28 03:31:05;;;;;;;6.55;5.20;;;-1.50;99.90;;;;;;502611;236;27903;-66
2024/01/28 03:33:06;;;;;;;8.27;5.12;;;-1.50;99.90;;;;;;502988;236;28109;-66
2024/01/28 03:35:07;;;;;;;8.32;4.65;;;-1.40;99.90;;;;;;502926;236;27517;-65
2024/01/28 03:37:09;;;;;;;9.85;5.37;;;-1.40;99.90;;;;;;503024;236;27470;-66
2024/01/28 03:39:10;;;;;;;9.10;5.20;;;-1.50;99.90;;;;;;502974;236;27533;-64
2024/01/28 03:41:11;;;;;;;8.10;4.62;;;-1.50;99.90;;;;;;503038;236;27432;-65
2024/01/28 03:43:13;;;;;;;6.07;4.55;;;-1.50;99.90;;;;;;503006;236;27501;-65
2024/01/28 03:45:14;;;;;;;10.18;5.05;;;-1.40;99.90;;;;;;502959;236;27565;-64
2024/01/28 03:47:15;;;;;;;7.03;4.85;;;-1.50;99.90;;;;;;502994;236;27472;-65
2024/01/28 03:49:16;;;;;;;6.93;4.68;;;-1.60;99.90;;;;;;503009;236;28600;-66
2024/01/28 03:51:17;;;;;;;10.75;5.30;;;-1.50;99.90;;;;;;502989;236;27909;-65
2024/01/28 03:53:19;;;;;;;7.22;5.20;;;-1.60;99.90;;;;;;503017;236;27973;-65
2024/01/28 03:55:20;;;;;;;5.07;4.57;;;-1.60;99.90;;;;;;502962;236;27450;-65
2024/01/28 03:57:21;;;;;;;7.43;5.22;;;-1.60;99.90;;;;;;502985;236;27486;-65
2024/01/28 03:59:22;;;;;;;7.30;4.10;;;-1.70;99.90;;;;;;503015;236;27506;-67
2024/01/28 04:01:24;;;;;;;5.60;4.30;;;-1.70;99.90;;;;;;503033;236;27455;-65
2024/01/28 04:03:25;;;;;;;8.45;4.72;;;-1.70;99.90;;;;;;503025;236;27477;-65
2024/01/28 04:05:26;;;;;;;6.50;4.70;;;-1.70;99.90;;;;;;502977;236;27985;-65
2024/01/28 04:07:27;;;;;;;10.18;5.37;;;-1.70;99.90;;;;;;503019;236;27917;-64
2024/01/28 04:09:29;;;;;;;10.07;5.03;;;-1.70;99.90;;;;;;503060;236;27588;-66
2024/01/28 04:11:30;;;;;;;7.25;5.40;;;-1.60;99.90;;;;;;503039;236;27540;-65
2024/01/28 04:13:31;;;;;;;6.53;4.70;;;-1.60;99.90;;;;;;503000;236;27566;-65
2024/01/28 04:15:32;;;;;;;11.73;4.80;;;-1.60;99.90;;;;;;502975;236;27473;-65
2024/01/28 04:17:34;;;;;;;6.40;4.47;;;-1.50;99.90;;;;;;503048;236;27459;-65
2024/01/28 04:19:35;;;;;;;6.35;4.97;;;-1.60;99.90;;;;;;503019;236;27485;-65
2024/01/28 04:21:36;;;;;;;6.00;4.60;;;-1.60;99.90;;;;;;502963;236;27443;-66
2024/01/28 04:23:39;;;;;;;12.77;5.75;;;-1.60;99.90;;;;;;502968;236;27903;-65
2024/01/28 04:25:39;;;;;;;7.62;5.87;;;-1.60;99.90;;;;;;502864;236;27962;-67
2024/01/28 04:27:40;;;;;;;7.03;5.00;;;-1.60;99.90;;;;;;503044;236;27438;-65
2024/01/28 04:29:41;;;;;;;6.87;4.57;;;-1.60;99.90;;;;;;503021;236;27479;-65
2024/01/28 04:31:42;;;;;;;7.05;4.25;;;-1.60;99.90;;;;;;502897;236;27492;-65
2024/01/28 04:33:44;;;;;;;7.62;4.30;;;-1.60;99.90;;;;;;502968;236;27565;-65
2024/01/28 04:35:45;;;;;;;6.82;5.00;;;-1.60;99.90;;;;;;502994;236;27505;-66
2024/01/28 04:37:46;;;;;;;6.50;4.75;;;-1.80;99.90;;;;;;503015;236;27433;-65
2024/01/28 04:39:49;;;;;;;7.75;4.57;;;-1.80;99.90;;;;;;502970;236;28053;-65
2024/01/28 04:41:49;;;;;;;8.68;5.18;;;-1.80;99.90;;;;;;502581;236;29744;-65
2024/01/28 04:43:50;;;;;;;7.18;5.00;;;-1.80;99.90;;;;;;503034;236;27443;-65
2024/01/28 04:45:51;;;;;;;5.65;4.75;;;-1.80;99.90;;;;;;502960;236;27550;-65
2024/01/28 04:47:53;;;;;;;6.85;4.78;;;-1.80;99.90;;;;;;502974;236;27485;-65
2024/01/28 04:49:54;;;;;;;7.95;5.72;;;-1.80;99.90;;;;;;502967;236;27486;-65
2024/01/28 04:51:55;;;;;;;11.80;6.28;;;-1.80;99.90;;;;;;502917;236;27498;-66
2024/01/28 04:53:57;;;;;;;5.87;4.62;;;-1.80;99.90;;;;;;502989;236;27890;-64
2024/01/28 04:55:58;;;;;;;7.00;5.00;;;-1.80;99.90;;;;;;502938;236;29070;-65
2024/01/28 04:57:59;;;;;;;6.07;5.00;;;-1.90;99.90;;;;;;502954;236;27434;-64
2024/01/28 05:00:00;;;;;;;8.98;4.68;;;-1.90;99.90;;;;;;503003;236;27455;-65
2024/01/28 05:02:01;;;;;;;12.43;5.00;;;-1.90;99.90;;;;;;502996;236;27488;-66
2024/01/28 05:04:04;;;;;;;7.72;5.00;;;-1.90;99.90;;;;;;502951;236;27497;-64
2024/01/28 05:06:04;;;;;;;7.00;4.70;;;-1.90;99.90;;;;;;502807;236;27611;-65
2024/01/28 05:08:06;;;;;;;6.37;4.47;;;-1.90;99.90;;;;;;502965;236;27430;-65
2024/01/28 05:10:08;;;;;;;6.68;4.60;;;-1.80;99.90;;;;;;502947;236;27513;-65
2024/01/28 05:12:08;;;;;;;6.55;5.00;;;-1.80;99.90;;;;;;502809;236;28021;-65
2024/01/28 05:14:09;;;;;;;7.35;5.28;;;-1.80;99.90;;;;;;502997;236;27906;-65
2024/01/28 05:16:11;;;;;;;9.40;4.85;;;-1.80;99.90;;;;;;502918;236;27962;-65
2024/01/28 05:18:11;;;;;;;6.95;5.10;;;-1.80;99.90;;;;;;502997;236;27626;-66
2024/01/28 05:20:14;;;;;;;6.43;4.47;;;-1.80;99.90;;;;;;503012;236;27502;-64
2024/01/28 05:22:14;;;;;;;4.97;4.32;;;-1.80;99.90;;;;;;502830;236;27613;-65
2024/01/28 05:24:15;;;;;;;7.47;4.62;;;-1.80;99.90;;;;;;502979;236;27528;-65
2024/01/28 05:26:17;;;;;;;7.07;4.97;;;-1.80;99.90;;;;;;502952;236;27552;-65
2024/01/28 05:28:18;;;;;;;9.18;4.82;;;-1.80;99.90;;;;;;503031;236;27614;-66
2024/01/28 05:30:19;;;;;;;6.40;4.95;;;-1.80;99.90;;;;;;503010;236;27481;-65
2024/01/28 05:32:20;;;;;;;6.85;5.03;;;-1.90;99.90;;;;;;503010;236;27945;-64
2024/01/28 05:34:21;;;;;;;7.60;5.07;;;-1.90;99.90;;;;;;502987;236;28670;-65
2024/01/28 05:36:23;;;;;;;7.80;5.07;;;-1.90;99.90;;;;;;502962;236;28007;-65
2024/01/28 05:38:24;;;;;;;6.32;4.90;;;-1.90;99.90;;;;;;503033;236;27467;-66
2024/01/28 05:40:25;;;;;;;9.13;4.93;;;-2.00;99.90;;;;;;503021;236;27449;-65
2024/01/28 05:42:26;;;;;;;7.07;5.00;;;-2.00;99.90;;;;;;502996;236;27390;-65
2024/01/28 05:44:28;;;;;;;6.47;4.97;;;-2.00;99.90;;;;;;503025;236;27469;-65
2024/01/28 05:46:29;;;;;;;7.10;4.75;;;-2.00;99.90;;;;;;503012;236;27463;-65
2024/01/28 05:48:30;;;;;;;8.30;5.00;;;-2.00;99.90;;;;;;502964;236;27472;-64
2024/01/28 05:50:31;;;;;;;6.87;4.78;;;-2.00;99.90;;;;;;502315;236;27270;-64
2024/01/28 05:52:33;;;;;;;6.60;4.87;;;-1.90;99.90;;;;;;502019;236;27872;-65
2024/01/28 05:54:35;;;;;;;13.57;6.00;;;-1.90;99.90;;;;;;502047;236;28688;-67
2024/01/28 05:56:35;;;;;;;11.82;6.40;;;-1.90;99.90;;;;;;501952;237;27909;-65
2024/01/28 05:58:36;;;;;;;5.80;4.90;;;-1.90;99.90;;;;;;502047;237;27401;-65
2024/01/28 06:00:38;;;;;;;6.85;5.80;;;-1.80;99.90;;;;;;502063;236;27361;-65
2024/01/28 06:02:39;;;;;;;8.25;5.30;;;-1.80;99.90;;;;;;502090;237;27366;-65
2024/01/28 06:04:40;;;;;;;7.55;5.10;;;-1.80;99.90;;;;;;502076;236;27452;-66
2024/01/28 06:06:42;;;;;;;8.98;5.35;;;-1.90;99.90;;;;;;502022;236;27416;-65
2024/01/28 06:08:43;;;;;;;7.87;4.75;;;-1.90;99.90;;;;;;502056;237;27408;-65
2024/01/28 06:10:44;;;;;;;8.85;5.03;;;-2.00;99.90;;;;;;502069;236;27345;-65
2024/01/28 06:12:45;;;;;;;9.65;5.65;;;-2.00;99.90;;;;;;502036;236;27853;-65
2024/01/28 06:14:46;;;;;;;7.70;5.75;;;-2.00;99.90;;;;;;502089;236;29043;-66
2024/01/28 06:16:48;;;;;;;8.10;4.65;;;-2.10;99.90;;;;;;502021;236;27440;-65
2024/01/28 06:18:49;;;;;;;9.30;5.10;;;-2.10;99.90;;;;;;502048;236;27447;-65
2024/01/28 06:20:51;;;;;;;8.23;5.55;;;-2.10;99.90;;;;;;502113;236;27365;-65
2024/01/28 06:22:51;;;;;;;6.62;4.80;;;-2.10;99.90;;;;;;502117;236;27475;-65
2024/01/28 06:24:53;;;;;;;6.32;4.68;;;-2.10;99.90;;;;;;502076;236;27397;-65
2024/01/28 06:26:54;;;;;;;6.40;5.43;;;-2.00;99.90;;;;;;501989;236;27425;-65
2024/01/28 06:28:55;;;;;;;9.23;6.32;;;-2.10;99.90;;;;;;502037;236;27405;-64
2024/01/28 06:30:57;;;;;;;8.27;5.32;;;-2.00;99.90;;;;;;502072;236;27409;-66
2024/01/28 06:32:58;;;;;;;8.00;4.60;;;-2.00;99.90;;;;;;502069;236;27912;-65
2024/01/28 06:34:59;;;;;;;9.02;5.03;;;-2.00;99.90;;;;;;502079;236;29033;-67
2024/01/28 06:37:00;;;;;;;5.72;4.70;;;-2.00;99.90;;;;;;502099;237;27397;-65
2024/01/28 06:39:02;;;;;;;5.87;4.75;;;-2.00;99.90;;;;;;502114;237;27483;-65
2024/01/28 06:41:03;;;;;;;8.80;5.30;;;-2.00;99.90;;;;;;502115;236;27488;-66
2024/01/28 06:43:04;;;;;;;9.27;5.10;;;-2.10;99.90;;;;;;502086;236;27388;-64
2024/01/28 06:45:07;;;;;;;9.18;5.93;;;-2.10;99.90;;;;;;502044;236;27389;-65
2024/01/28 06:47:07;;;;;;;6.07;5.00;;;-2.00;99.90;;;;;;501924;237;27457;-65
2024/01/28 06:49:08;;;;;;;13.27;5.90;;;-1.80;99.90;;;;;;502417;236;27324;-65
2024/01/28 06:51:09;;;;;;;8.18;5.03;;;-2.00;99.90;;;;;;503114;236;27932;-65
2024/01/28 06:53:10;;;;;;;9.23;5.37;;;-2.00;99.90;;;;;;503042;236;27861;-65
2024/01/28 06:55:12;;;;;;;10.07;5.50;;;-2.00;99.90;;;;;;503002;236;27985;-65
2024/01/28 06:57:13;;;;;;;7.80;5.25;;;-2.00;99.90;;;;;;503041;236;27558;-66
2024/01/28 06:59:14;;;;;;;10.48;5.75;;;-2.00;99.90;;;;;;503078;236;27486;-65
2024/01/28 07:01:15;;;;;;;9.85;6.20;;;-2.10;99.90;;;;;;503056;236;27502;-65
2024/01/28 07:03:18;;;;;;;9.88;5.57;;;-2.20;99.90;;;;;;503044;236;27469;-65
2024/01/28 07:05:18;;;;;;;6.87;5.80;;;-2.20;99.90;;;;;;502867;236;27475;-65
2024/01/28 07:07:19;;;;;;;8.88;6.47;;;-2.20;99.90;;;;;;503028;236;27524;-65
2024/01/28 07:09:21;;;;;;;8.93;6.37;;;-2.10;99.90;;;;;;502938;236;27592;-65
2024/01/28 07:11:22;;;;;;;10.38;5.90;;;-2.00;99.90;;;;;;502963;236;27934;-65
2024/01/28 07:13:23;;;;;;;6.68;5.37;;;-1.90;99.90;;;;;;502924;236;30005;-65
2024/01/28 07:15:24;;;;;;;13.30;5.72;;;-1.90;99.90;;;;;;502983;236;27456;-65
2024/01/28 07:17:25;;;;;;;7.70;6.20;;;-1.90;99.90;;;;;;503032;236;27560;-66
2024/01/28 07:19:27;;;;;;;11.93;7.65;;;-2.00;99.90;;;;;;502969;236;27442;-65
2024/01/28 07:21:28;;;;;;;10.10;7.30;;;-2.00;99.90;;;;;;502862;236;27505;-65
2024/01/28 07:23:29;;;;;;;9.18;6.70;;;-2.00;99.90;;;;;;503014;236;27500;-67
2024/01/28 07:25:30;;;;;;;14.10;6.93;;;-1.90;99.90;;;;;;502962;236;27585;-65
2024/01/28 07:27:32;;;;;;;8.98;6.30;;;-1.90;99.90;;;;;;502976;236;28049;-65
2024/01/28 07:29:33;;;;;;;12.50;6.57;;;-1.80;99.90;;;;;;502997;236;28029;-65
2024/01/28 07:31:34;;;;;;;9.15;6.05;;;-1.80;99.90;;;;;;502914;236;27937;-65
2024/01/28 07:33:35;;;;;;;10.20;6.28;;;-1.90;99.90;;;;;;503016;236;27528;-66
2024/01/28 07:35:37;;;;;;;9.15;6.03;;;-1.90;99.90;;;;;;502921;236;27428;-65
2024/01/28 07:37:38;;;;;;;10.98;6.90;;;-1.90;99.90;;;;;;502990;236;27460;-65
2024/01/28 07:39:39;;;;;;;7.93;6.32;;;-1.90;99.90;;;;;;502898;236;27449;-65
2024/01/28 07:41:40;;;;;;;8.43;6.60;;;-1.90;99.90;;;;;;503027;236;27540;-65
2024/01/28 07:43:42;;;;;;;13.80;7.57;;;-2.00;99.90;;;;;;503031;236;27562;-65
2024/01/28 07:45:43;;;;;;;16.37;7.20;;;-1.90;99.90;;;;;;502921;236;27956;-65
2024/01/28 07:47:44;;;;;;;10.23;7.40;;;-1.90;99.90;;;;;;502905;236;29047;-66
2024/01/28 07:49:46;;;;;;;10.00;7.25;;;-1.80;99.90;;;;;;503040;236;27596;-66
2024/01/28 07:51:47;;;;;;;10.40;7.35;;;-1.80;99.90;;;;;;502978;236;27478;-65
2024/01/28 07:53:48;;;;;;;12.60;8.35;;;-1.80;99.90;;;;;;502939;236;29059;-65
2024/01/28 07:55:49;;;;;;;9.10;6.93;;;-1.80;99.90;;;;;;502891;236;27766;-65
2024/01/28 07:57:51;;;;;;;10.85;6.68;;;-1.80;99.90;;;;;;503003;236;27445;-65
2024/01/28 07:59:52;;;;;;;9.45;6.70;;;-1.80;99.90;;;;;;503002;236;27537;-66
2024/01/28 08:01:53;;;;;;;11.50;7.15;;;-1.70;99.90;;;;;;502954;236;27496;-65
2024/01/28 08:03:55;;;;;;;11.07;7.57;;;-1.60;99.90;;;;;;502603;236;27477;-65
2024/01/28 08:05:56;;;;;;;10.55;6.30;;;-1.60;99.90;;;;;;502908;236;27917;-66
2024/01/28 08:07:57;;;;;;;10.40;6.82;;;-1.50;99.90;;;;;;503003;236;27905;-65
2024/01/28 08:09:58;;;;;;;9.60;6.75;;;-1.50;99.90;;;;;;502981;236;28072;-65
2024/01/28 08:11:59;;;;;;;13.95;7.05;;;-1.50;99.90;;;;;;502972;236;27913;-65
2024/01/28 08:14:01;;;;;;;12.10;7.72;;;-1.50;99.90;;;;;;502980;236;27469;-65
2024/01/28 08:16:03;;;;;;;8.98;6.93;;;-1.40;99.90;;;;;;502960;236;27468;-71
2024/01/28 08:18:03;;;;;;;10.77;7.15;;;-1.30;99.90;;;;;;502961;236;27501;-69
2024/01/28 08:20:04;;;;;;;11.05;7.18;;;-1.40;99.90;;;;;;502968;236;27497;-70
2024/01/28 08:22:06;;;;;;;12.63;8.40;;;-1.40;99.90;;;;;;502875;236;27889;-69
2024/01/28 08:24:07;;;;;;;12.68;7.75;;;-1.40;99.90;;;;;;502930;236;28025;-69
2024/01/28 08:26:08;;;;;;;16.40;10.23;;;-1.30;99.90;;;;;;502816;236;27548;-72
2024/01/28 08:28:10;;;;;;;16.92;10.77;;;-1.30;99.90;;;;;;502986;236;27430;-71
2024/01/28 08:30:11;;;;;;;13.35;7.87;;;-1.10;99.90;;;;;;502971;236;27478;-71
2024/01/28 08:32:12;;;;;;;11.70;7.68;;;-1.10;99.90;;;;;;502987;236;27494;-71
2024/01/28 08:34:13;;;;;;;13.50;7.95;;;-1.00;99.90;;;;;;503005;236;27568;-71
2024/01/28 08:36:15;;;;;;;11.15;6.78;;;-1.00;99.90;;;;;;502904;236;27988;-71
2024/01/28 08:38:16;;;;;;;14.87;8.20;;;-0.90;99.90;;;;;;502985;236;27907;-71
2024/01/28 08:40:19;;;;;;;17.45;8.77;;;-0.90;99.90;;;;;;497959;235;27468;-71
2024/01/28 08:42:19;;;;;;;16.75;8.70;;;-0.80;99.90;;;;;;500375;236;27522;-73
2024/01/28 08:44:20;;;;;;;14.25;8.50;;;-0.70;99.90;;;;;;502815;236;27521;-71
2024/01/28 08:46:21;;;;;;;11.60;7.90;;;-0.60;99.90;;;;;;502733;236;27525;-71
2024/01/28 08:48:22;;;;;;;16.70;9.70;;;-0.60;99.90;;;;;;502604;236;27442;-71
2024/01/28 08:50:23;;;;;;;12.40;8.68;;;-0.60;99.90;;;;;;502808;236;27529;-70
2024/01/28 08:52:25;;;;;;;14.87;8.20;;;-0.60;99.90;;;;;;502837;236;27989;-74
2024/01/28 08:54:26;;;;;;;11.38;8.60;;;-0.50;99.90;;;;;;502793;236;27957;-73
2024/01/28 08:56:27;;;;;;;13.52;7.90;;;-0.50;99.90;;;;;;499514;235;27435;-72
2024/01/28 08:58:30;;;;;;;11.43;7.72;;;-0.50;99.90;;;;;;492030;241;27470;-72
2024/01/28 09:00:30;;;;;;;17.80;8.68;;;-0.50;99.90;;;;;;491896;241;27642;-72
2024/01/28 09:02:35;;;;;;;18.17;10.38;;;-0.50;99.90;;;;;;492360;236;27478;-72
2024/01/28 09:04:32;;;;;;;18.62;11.60;;;-0.40;99.90;;;;;;492135;241;27515;-72
2024/01/28 09:06:35;;;;;;;19.60;11.65;;;-0.40;99.90;;;;;;492654;236;27907;-72
2024/01/28 09:08:35;;;;;;;20.73;12.37;;;-0.30;99.90;;;;;;492493;241;27897;-72
2024/01/28 09:10:36;;;;;;;27.37;13.77;;;-0.20;99.90;;;;;;492678;241;27435;-71
2024/01/28 09:12:37;;;;;;;22.05;11.90;;;-0.20;99.90;;;;;;492687;236;27431;-72
2024/01/28 09:14:38;;;;;;;14.98;10.82;;;-0.10;99.90;;;;;;496413;236;27457;-72
2024/01/28 09:16:40;;;;;;;13.90;8.23;;;-0.10;99.90;;;;;;498001;236;27348;-72
2024/01/28 09:18:42;;;;;;;18.90;9.75;;;-0.10;99.90;;;;;;498757;236;27465;-74
2024/01/28 09:20:42;;;;;;;12.85;8.93;;;0.00;99.90;;;;;;502707;236;27901;-72
2024/01/28 09:22:43;;;;;;;18.67;9.63;;;0.10;99.90;;;;;;494105;236;27945;-72
2024/01/28 09:24:45;;;;;;;14.95;8.90;;;0.20;99.90;;;;;;492472;241;27538;-72
2024/01/28 09:26:46;;;;;;;19.25;10.95;;;0.20;99.90;;;;;;492591;236;27475;-72
2024/01/28 09:28:47;;;;;;;17.20;10.07;;;0.20;99.90;;;;;;492627;241;27508;-74
2024/01/28 09:30:49;;;;;;;20.25;10.10;;;0.30;99.90;;;;;;492575;241;27510;-72
2024/01/28 09:32:50;;;;;;;17.23;10.10;;;0.40;99.90;;;;;;492688;236;27473;-72
2024/01/28 09:34:51;;;;;;;15.93;11.00;;;0.50;99.90;;;;;;492604;241;27474;-71
2024/01/28 09:36:52;;;;;;;20.50;11.65;;;0.50;99.90;;;;;;492589;236;27952;-72
2024/01/28 09:38:53;;;;;;;24.33;12.85;;;0.60;99.90;;;;;;492562;241;28744;-73
2024/01/28 09:40:55;;;;;;;20.17;11.80;;;0.70;99.90;;;;;;492508;241;27459;-71
2024/01/28 09:42:56;;;;;;;16.40;11.02;;;0.80;99.90;;;;;;492692;236;27534;-72
2024/01/28 09:44:57;;;;;;;16.02;10.77;;;0.90;99.90;;;;;;492635;241;27470;-76
2024/01/28 09:46:59;;;;;;;19.52;11.93;;;1.30;99.90;;;;;;493226;236;27463;-72
2024/01/28 09:49:00;;;;;;;17.23;10.25;;;1.00;99.90;;;;;;493935;240;27501;-72
2024/01/28 09:51:01;;;;;;;14.65;10.40;;;1.10;99.90;;;;;;494001;240;27462;-72
2024/01/28 09:53:02;;;;;;;14.48;9.93;;;1.10;99.90;;;;;;494049;236;27926;-72
2024/01/28 09:55:04;;;;;;;13.38;9.40;;;1.20;99.90;;;;;;493981;240;28037;-73
2024/01/28 09:57:05;;;;;;;16.42;11.45;;;1.20;99.90;;;;;;494013;236;28054;-72
2024/01/28 09:59:06;;;;;;;14.63;10.77;;;1.30;99.90;;;;;;493979;240;27585;-73
2024/01/28 10:01:07;;;;;;;32.58;21.33;;;1.40;99.90;;;;;;493831;240;27470;-72
2024/01/28 10:03:09;;;;;;;23.60;15.48;;;1.50;99.90;;;;;;492799;236;27431;-72
2024/01/28 10:05:10;;;;;;;21.70;14.32;;;1.50;99.90;;;;;;492630;241;27592;-73
2024/01/28 10:07:11;;;;;;;20.45;12.93;;;1.60;99.90;;;;;;497088;236;27401;-72
2024/01/28 10:09:12;;;;;;;23.73;14.68;;;1.70;99.90;;;;;;502944;236;27469;-71
2024/01/28 10:11:14;;;;;;;22.62;15.10;;;1.80;99.90;;;;;;502929;236;27967;-72
2024/01/28 10:13:15;;;;;;;26.67;17.20;;;2.00;99.90;;;;;;502781;236;27488;-72
2024/01/28 10:15:16;;;;;;;19.33;12.77;;;2.00;99.90;;;;;;501689;235;27513;-73
2024/01/28 10:17:17;;;;;;;17.45;11.55;;;2.00;99.90;;;;;;502944;236;27432;-72
2024/01/28 10:19:19;;;;;;;15.75;10.75;;;2.10;99.90;;;;;;502873;236;27590;-72
2024/01/28 10:21:20;;;;;;;20.10;11.93;;;2.20;99.90;;;;;;502833;236;27581;-75
2024/01/28 10:23:21;;;;;;;17.87;10.82;;;2.30;99.90;;;;;;502770;236;27446;-72
2024/01/28 10:25:22;;;;;;;15.73;9.40;;;2.40;99.90;;;;;;502585;236;27994;-73
2024/01/28 10:27:24;;;;;;;13.70;9.73;;;2.40;99.90;;;;;;502399;236;27958;-72